sensor_id;sensor_type;location;lat;lon;timestamp;P1;durP1;ratioP1;P2;durP2;ratioP2
50549;SDS011;36505;52.512;13.460;2023-02-18T00:01:53;15.65;;;3.38;;
50549;SDS011;36505;52.512;13.460;2023-02-18T00:04:18;17.58;;;3.47;;
50549;SDS011;36505;52.512;13.460;2023-02-18T00:06:44;23.90;;;4.00;;
50549;SDS011;36505;52.512;13.460;2023-02-18T00:09:10;13.93;;;3.38;;
50549;SDS011;36505;52.512;13.460;2023-02-18T00:11:35;17.77;;;2.63;;
50549;SDS011;36505;52.512;13.460;2023-02-18T00:14:02;18.02;;;2.40;;
50549;SDS011;36505;52.512;13.460;2023-02-18T00:16:30;15.43;;;2.97;;
50549;SDS011;36505;52.512;13.460;2023-02-18T00:18:56;15.55;;;2.20;;
50549;SDS011;36505;52.512;13.460;2023-02-18T00:21:22;13.98;;;4.28;;
50549;SDS011;36505;52.512;13.460;2023-02-18T00:23:48;11.15;;;2.22;;
50549;SDS011;36505;52.512;13.460;2023-02-18T00:26:14;18.58;;;3.15;;
50549;SDS011;36505;52.512;13.460;2023-02-18T00:28:41;13.05;;;2.50;;
50549;SDS011;36505;52.512;13.460;2023-02-18T00:31:08;15.02;;;2.63;;
50549;SDS011;36505;52.512;13.460;2023-02-18T00:33:38;18.15;;;2.20;;
50549;SDS011;36505;52.512;13.460;2023-02-18T00:36:05;16.92;;;3.17;;
50549;SDS011;36505;52.512;13.460;2023-02-18T00:38:33;21.42;;;2.75;;
50549;SDS011;36505;52.512;13.460;2023-02-18T00:40:59;19.25;;;2.28;;
50549;SDS011;36505;52.512;13.460;2023-02-18T00:43:25;23.20;;;3.72;;
50549;SDS011;36505;52.512;13.460;2023-02-18T00:45:51;16.20;;;2.28;;
50549;SDS011;36505;52.512;13.460;2023-02-18T00:48:16;10.98;;;2.25;;
50549;SDS011;36505;52.512;13.460;2023-02-18T00:50:42;15.98;;;2.70;;
50549;SDS011;36505;52.512;13.460;2023-02-18T00:53:07;15.65;;;2.80;;
50549;SDS011;36505;52.512;13.460;2023-02-18T00:55:37;15.13;;;2.38;;
50549;SDS011;36505;52.512;13.460;2023-02-18T00:58:06;14.80;;;2.38;;
50549;SDS011;36505;52.512;13.460;2023-02-18T01:00:32;14.25;;;2.35;;
50549;SDS011;36505;52.512;13.460;2023-02-18T01:02:58;14.60;;;2.33;;
50549;SDS011;36505;52.512;13.460;2023-02-18T01:05:23;15.30;;;2.47;;
50549;SDS011;36505;52.512;13.460;2023-02-18T01:07:49;13.63;;;2.65;;
50549;SDS011;36505;52.512;13.460;2023-02-18T01:10:14;7.93;;;1.98;;
50549;SDS011;36505;52.512;13.460;2023-02-18T01:12:40;19.13;;;3.08;;
50549;SDS011;36505;52.512;13.460;2023-02-18T01:15:05;19.75;;;2.45;;
50549;SDS011;36505;52.512;13.460;2023-02-18T01:17:31;11.23;;;2.03;;
50549;SDS011;36505;52.512;13.460;2023-02-18T01:19:56;16.95;;;2.80;;
50549;SDS011;36505;52.512;13.460;2023-02-18T01:22:22;23.08;;;4.47;;
50549;SDS011;36505;52.512;13.460;2023-02-18T01:24:47;20.58;;;2.78;;
50549;SDS011;36505;52.512;13.460;2023-02-18T01:27:13;9.95;;;2.95;;
50549;SDS011;36505;52.512;13.460;2023-02-18T01:29:38;21.23;;;2.35;;
50549;SDS011;36505;52.512;13.460;2023-02-18T01:32:04;18.02;;;2.95;;
50549;SDS011;36505;52.512;13.460;2023-02-18T01:34:29;19.30;;;2.72;;
50549;SDS011;36505;52.512;13.460;2023-02-18T01:36:55;16.67;;;3.00;;
50549;SDS011;36505;52.512;13.460;2023-02-18T01:39:20;12.82;;;2.55;;
50549;SDS011;36505;52.512;13.460;2023-02-18T01:41:45;15.68;;;3.13;;
50549;SDS011;36505;52.512;13.460;2023-02-18T01:44:18;14.95;;;2.72;;
50549;SDS011;36505;52.512;13.460;2023-02-18T01:46:46;11.25;;;2.47;;
50549;SDS011;36505;52.512;13.460;2023-02-18T01:49:16;15.77;;;2.03;;
50549;SDS011;36505;52.512;13.460;2023-02-18T01:51:45;17.90;;;2.90;;
50549;SDS011;36505;52.512;13.460;2023-02-18T01:54:37;13.00;;;2.38;;
50549;SDS011;36505;52.512;13.460;2023-02-18T01:57:06;13.75;;;2.67;;
50549;SDS011;36505;52.512;13.460;2023-02-18T01:59:37;17.20;;;2.88;;
50549;SDS011;36505;52.512;13.460;2023-02-18T02:02:11;17.00;;;3.85;;
50549;SDS011;36505;52.512;13.460;2023-02-18T02:04:39;15.77;;;2.15;;
50549;SDS011;36505;52.512;13.460;2023-02-18T02:07:06;18.10;;;2.35;;
50549;SDS011;36505;52.512;13.460;2023-02-18T02:09:31;17.00;;;2.38;;
50549;SDS011;36505;52.512;13.460;2023-02-18T02:15:18;17.45;;;2.90;;
50549;SDS011;36505;52.512;13.460;2023-02-18T02:40:46;15.93;;;3.20;;
50549;SDS011;36505;52.512;13.460;2023-02-18T02:42:48;14.50;;;2.65;;
50549;SDS011;36505;52.512;13.460;2023-02-18T02:48:05;11.00;;;2.65;;
50549;SDS011;36505;52.512;13.460;2023-02-18T02:50:58;18.38;;;2.50;;
50549;SDS011;36505;52.512;13.460;2023-02-18T02:53:35;9.30;;;2.45;;
50549;SDS011;36505;52.512;13.460;2023-02-18T02:56:04;21.13;;;3.28;;
50549;SDS011;36505;52.512;13.460;2023-02-18T02:58:29;15.02;;;3.17;;
50549;SDS011;36505;52.512;13.460;2023-02-18T03:01:17;12.48;;;1.98;;
50549;SDS011;36505;52.512;13.460;2023-02-18T03:07:26;15.57;;;2.08;;
50549;SDS011;36505;52.512;13.460;2023-02-18T03:17:53;8.07;;;2.47;;
50549;SDS011;36505;52.512;13.460;2023-02-18T03:20:26;9.02;;;1.73;;
50549;SDS011;36505;52.512;13.460;2023-02-18T03:22:55;12.32;;;2.25;;
50549;SDS011;36505;52.512;13.460;2023-02-18T03:25:24;9.30;;;1.75;;
50549;SDS011;36505;52.512;13.460;2023-02-18T03:28:10;12.13;;;2.55;;
50549;SDS011;36505;52.512;13.460;2023-02-18T03:30:44;14.40;;;2.00;;
50549;SDS011;36505;52.512;13.460;2023-02-18T03:33:13;12.40;;;1.70;;
50549;SDS011;36505;52.512;13.460;2023-02-18T03:35:41;11.95;;;2.13;;
50549;SDS011;36505;52.512;13.460;2023-02-18T03:40:53;17.85;;;1.85;;
50549;SDS011;36505;52.512;13.460;2023-02-18T03:43:19;11.20;;;2.15;;
50549;SDS011;36505;52.512;13.460;2023-02-18T03:45:45;8.32;;;1.80;;
50549;SDS011;36505;52.512;13.460;2023-02-18T03:48:10;16.52;;;2.58;;
50549;SDS011;36505;52.512;13.460;2023-02-18T03:50:36;14.45;;;3.08;;
50549;SDS011;36505;52.512;13.460;2023-02-18T03:53:01;16.42;;;2.40;;
50549;SDS011;36505;52.512;13.460;2023-02-18T03:55:26;9.68;;;2.80;;
50549;SDS011;36505;52.512;13.460;2023-02-18T03:57:52;13.65;;;3.17;;
50549;SDS011;36505;52.512;13.460;2023-02-18T04:00:18;8.90;;;1.70;;
50549;SDS011;36505;52.512;13.460;2023-02-18T04:02:44;12.65;;;1.73;;
50549;SDS011;36505;52.512;13.460;2023-02-18T04:05:11;12.10;;;1.92;;
50549;SDS011;36505;52.512;13.460;2023-02-18T04:07:37;10.15;;;1.60;;
50549;SDS011;36505;52.512;13.460;2023-02-18T04:10:03;10.73;;;2.92;;
50549;SDS011;36505;52.512;13.460;2023-02-18T04:12:30;9.75;;;1.20;;
50549;SDS011;36505;52.512;13.460;2023-02-18T04:14:55;6.85;;;2.00;;
50549;SDS011;36505;52.512;13.460;2023-02-18T04:17:20;9.35;;;1.67;;
50549;SDS011;36505;52.512;13.460;2023-02-18T04:19:46;10.43;;;1.90;;
50549;SDS011;36505;52.512;13.460;2023-02-18T04:22:11;9.25;;;1.77;;
50549;SDS011;36505;52.512;13.460;2023-02-18T04:24:36;8.65;;;1.60;;
50549;SDS011;36505;52.512;13.460;2023-02-18T04:27:02;7.53;;;1.85;;
50549;SDS011;36505;52.512;13.460;2023-02-18T04:29:27;15.60;;;3.80;;
50549;SDS011;36505;52.512;13.460;2023-02-18T04:31:53;8.02;;;2.13;;
50549;SDS011;36505;52.512;13.460;2023-02-18T04:34:18;26.98;;;9.48;;
50549;SDS011;36505;52.512;13.460;2023-02-18T04:36:44;10.82;;;2.13;;
50549;SDS011;36505;52.512;13.460;2023-02-18T04:39:09;11.80;;;2.08;;
50549;SDS011;36505;52.512;13.460;2023-02-18T04:41:35;17.23;;;4.78;;
50549;SDS011;36505;52.512;13.460;2023-02-18T04:44:00;18.77;;;3.75;;
50549;SDS011;36505;52.512;13.460;2023-02-18T04:46:26;11.65;;;2.08;;
50549;SDS011;36505;52.512;13.460;2023-02-18T04:48:51;12.40;;;2.10;;
50549;SDS011;36505;52.512;13.460;2023-02-18T04:51:17;9.68;;;1.70;;
50549;SDS011;36505;52.512;13.460;2023-02-18T04:53:42;5.32;;;2.17;;
50549;SDS011;36505;52.512;13.460;2023-02-18T04:56:07;10.20;;;1.52;;
50549;SDS011;36505;52.512;13.460;2023-02-18T04:58:33;12.10;;;4.57;;
50549;SDS011;36505;52.512;13.460;2023-02-18T05:00:59;12.55;;;3.22;;
50549;SDS011;36505;52.512;13.460;2023-02-18T05:03:25;9.50;;;2.88;;
50549;SDS011;36505;52.512;13.460;2023-02-18T05:05:51;17.80;;;2.38;;
50549;SDS011;36505;52.512;13.460;2023-02-18T05:08:16;8.10;;;1.60;;
50549;SDS011;36505;52.512;13.460;2023-02-18T05:10:43;14.18;;;1.98;;
50549;SDS011;36505;52.512;13.460;2023-02-18T05:13:08;15.02;;;2.58;;
50549;SDS011;36505;52.512;13.460;2023-02-18T05:15:34;8.18;;;1.17;;
50549;SDS011;36505;52.512;13.460;2023-02-18T05:17:59;7.88;;;1.92;;
50549;SDS011;36505;52.512;13.460;2023-02-18T05:20:25;13.60;;;2.80;;
50549;SDS011;36505;52.512;13.460;2023-02-18T05:22:50;10.55;;;1.70;;
50549;SDS011;36505;52.512;13.460;2023-02-18T05:25:15;9.20;;;1.55;;
50549;SDS011;36505;52.512;13.460;2023-02-18T05:27:41;9.10;;;1.77;;
50549;SDS011;36505;52.512;13.460;2023-02-18T05:30:06;10.57;;;1.30;;
50549;SDS011;36505;52.512;13.460;2023-02-18T05:32:32;14.52;;;1.98;;
50549;SDS011;36505;52.512;13.460;2023-02-18T05:34:58;8.32;;;1.40;;
50549;SDS011;36505;52.512;13.460;2023-02-18T05:37:23;6.63;;;1.50;;
50549;SDS011;36505;52.512;13.460;2023-02-18T05:39:48;6.50;;;1.30;;
50549;SDS011;36505;52.512;13.460;2023-02-18T05:42:14;12.20;;;2.53;;
50549;SDS011;36505;52.512;13.460;2023-02-18T05:44:39;7.32;;;1.67;;
50549;SDS011;36505;52.512;13.460;2023-02-18T05:47:06;12.25;;;2.83;;
50549;SDS011;36505;52.512;13.460;2023-02-18T05:49:33;7.10;;;1.40;;
50549;SDS011;36505;52.512;13.460;2023-02-18T05:51:59;9.02;;;1.50;;
50549;SDS011;36505;52.512;13.460;2023-02-18T05:54:25;13.35;;;1.52;;
50549;SDS011;36505;52.512;13.460;2023-02-18T05:56:50;6.57;;;1.88;;
50549;SDS011;36505;52.512;13.460;2023-02-18T05:59:16;9.75;;;1.80;;
50549;SDS011;36505;52.512;13.460;2023-02-18T06:01:42;9.32;;;1.85;;
50549;SDS011;36505;52.512;13.460;2023-02-18T06:04:08;13.63;;;2.35;;
50549;SDS011;36505;52.512;13.460;2023-02-18T06:06:34;8.77;;;1.50;;
50549;SDS011;36505;52.512;13.460;2023-02-18T06:08:59;12.68;;;2.25;;
50549;SDS011;36505;52.512;13.460;2023-02-18T06:11:25;14.65;;;1.98;;
50549;SDS011;36505;52.512;13.460;2023-02-18T06:13:50;8.85;;;1.30;;
50549;SDS011;36505;52.512;13.460;2023-02-18T06:16:16;6.65;;;1.30;;
50549;SDS011;36505;52.512;13.460;2023-02-18T06:18:41;7.68;;;1.52;;
50549;SDS011;36505;52.512;13.460;2023-02-18T06:21:07;9.55;;;1.75;;
50549;SDS011;36505;52.512;13.460;2023-02-18T06:23:32;6.45;;;1.15;;
50549;SDS011;36505;52.512;13.460;2023-02-18T06:25:57;8.05;;;1.80;;
50549;SDS011;36505;52.512;13.460;2023-02-18T06:28:23;9.30;;;2.22;;
50549;SDS011;36505;52.512;13.460;2023-02-18T06:30:51;10.35;;;1.38;;
50549;SDS011;36505;52.512;13.460;2023-02-18T06:33:16;6.22;;;1.50;;
50549;SDS011;36505;52.512;13.460;2023-02-18T06:35:48;12.98;;;2.40;;
50549;SDS011;36505;52.512;13.460;2023-02-18T06:38:17;4.20;;;1.70;;
50549;SDS011;36505;52.512;13.460;2023-02-18T06:40:44;8.93;;;1.52;;
50549;SDS011;36505;52.512;13.460;2023-02-18T06:43:11;4.10;;;1.20;;
50549;SDS011;36505;52.512;13.460;2023-02-18T06:45:37;5.82;;;1.02;;
50549;SDS011;36505;52.512;13.460;2023-02-18T06:48:04;14.55;;;3.80;;
50549;SDS011;36505;52.512;13.460;2023-02-18T06:50:29;10.60;;;2.00;;
50549;SDS011;36505;52.512;13.460;2023-02-18T06:52:55;9.07;;;3.13;;
50549;SDS011;36505;52.512;13.460;2023-02-18T06:55:20;11.95;;;1.83;;
50549;SDS011;36505;52.512;13.460;2023-02-18T06:57:45;6.25;;;1.60;;
50549;SDS011;36505;52.512;13.460;2023-02-18T07:00:11;9.43;;;1.70;;
50549;SDS011;36505;52.512;13.460;2023-02-18T07:02:36;8.23;;;1.48;;
50549;SDS011;36505;52.512;13.460;2023-02-18T07:05:02;8.77;;;1.73;;
50549;SDS011;36505;52.512;13.460;2023-02-18T07:07:27;7.10;;;1.67;;
50549;SDS011;36505;52.512;13.460;2023-02-18T07:09:53;9.63;;;2.10;;
50549;SDS011;36505;52.512;13.460;2023-02-18T07:12:18;13.15;;;3.22;;
50549;SDS011;36505;52.512;13.460;2023-02-18T07:14:43;6.47;;;1.60;;
50549;SDS011;36505;52.512;13.460;2023-02-18T07:17:09;6.88;;;1.17;;
50549;SDS011;36505;52.512;13.460;2023-02-18T07:19:34;6.32;;;1.63;;
50549;SDS011;36505;52.512;13.460;2023-02-18T07:22:00;6.55;;;2.33;;
50549;SDS011;36505;52.512;13.460;2023-02-18T07:24:25;8.13;;;1.33;;
50549;SDS011;36505;52.512;13.460;2023-02-18T07:26:51;7.90;;;1.30;;
50549;SDS011;36505;52.512;13.460;2023-02-18T07:29:16;7.53;;;1.20;;
50549;SDS011;36505;52.512;13.460;2023-02-18T07:31:41;8.63;;;1.48;;
50549;SDS011;36505;52.512;13.460;2023-02-18T07:34:07;5.53;;;1.13;;
50549;SDS011;36505;52.512;13.460;2023-02-18T07:36:32;15.02;;;4.15;;
50549;SDS011;36505;52.512;13.460;2023-02-18T07:38:58;11.02;;;1.98;;
50549;SDS011;36505;52.512;13.460;2023-02-18T07:41:23;8.45;;;1.80;;
50549;SDS011;36505;52.512;13.460;2023-02-18T07:43:48;3.92;;;1.25;;
50549;SDS011;36505;52.512;13.460;2023-02-18T07:46:14;17.52;;;4.03;;
50549;SDS011;36505;52.512;13.460;2023-02-18T07:48:40;6.03;;;1.40;;
50549;SDS011;36505;52.512;13.460;2023-02-18T07:51:06;4.57;;;1.50;;
50549;SDS011;36505;52.512;13.460;2023-02-18T07:53:33;7.53;;;1.77;;
50549;SDS011;36505;52.512;13.460;2023-02-18T07:55:59;11.93;;;1.40;;
50549;SDS011;36505;52.512;13.460;2023-02-18T07:58:28;7.07;;;1.75;;
50549;SDS011;36505;52.512;13.460;2023-02-18T08:00:55;5.93;;;2.05;;
50549;SDS011;36505;52.512;13.460;2023-02-18T08:03:29;9.68;;;2.45;;
50549;SDS011;36505;52.512;13.460;2023-02-18T08:05:56;6.00;;;1.10;;
50549;SDS011;36505;52.512;13.460;2023-02-18T08:08:26;9.43;;;1.55;;
50549;SDS011;36505;52.512;13.460;2023-02-18T08:10:54;12.82;;;1.38;;
50549;SDS011;36505;52.512;13.460;2023-02-18T08:13:21;4.72;;;1.00;;
50549;SDS011;36505;52.512;13.460;2023-02-18T08:15:46;7.25;;;0.80;;
50549;SDS011;36505;52.512;13.460;2023-02-18T08:18:18;8.57;;;2.22;;
50549;SDS011;36505;52.512;13.460;2023-02-18T08:20:46;12.07;;;4.18;;
50549;SDS011;36505;52.512;13.460;2023-02-18T08:23:12;4.15;;;1.83;;
50549;SDS011;36505;52.512;13.460;2023-02-18T08:25:38;8.27;;;2.55;;
50549;SDS011;36505;52.512;13.460;2023-02-18T08:28:04;7.53;;;1.60;;
50549;SDS011;36505;52.512;13.460;2023-02-18T08:30:30;5.72;;;1.20;;
50549;SDS011;36505;52.512;13.460;2023-02-18T08:32:56;4.95;;;1.30;;
50549;SDS011;36505;52.512;13.460;2023-02-18T08:35:22;8.63;;;2.42;;
50549;SDS011;36505;52.512;13.460;2023-02-18T08:37:47;10.60;;;2.50;;
50549;SDS011;36505;52.512;13.460;2023-02-18T08:40:13;7.82;;;1.60;;
50549;SDS011;36505;52.512;13.460;2023-02-18T08:42:39;8.63;;;1.25;;
50549;SDS011;36505;52.512;13.460;2023-02-18T08:45:05;6.00;;;1.05;;
50549;SDS011;36505;52.512;13.460;2023-02-18T08:47:31;9.82;;;1.10;;
50549;SDS011;36505;52.512;13.460;2023-02-18T08:49:56;7.20;;;1.42;;
50549;SDS011;36505;52.512;13.460;2023-02-18T08:52:22;4.38;;;1.30;;
50549;SDS011;36505;52.512;13.460;2023-02-18T08:54:48;6.45;;;1.30;;
50549;SDS011;36505;52.512;13.460;2023-02-18T08:57:13;10.15;;;1.95;;
50549;SDS011;36505;52.512;13.460;2023-02-18T08:59:39;9.65;;;2.65;;
50549;SDS011;36505;52.512;13.460;2023-02-18T09:02:04;6.95;;;1.95;;
50549;SDS011;36505;52.512;13.460;2023-02-18T09:04:30;4.80;;;1.23;;
50549;SDS011;36505;52.512;13.460;2023-02-18T09:06:55;5.15;;;1.65;;
50549;SDS011;36505;52.512;13.460;2023-02-18T09:09:21;7.82;;;1.50;;
50549;SDS011;36505;52.512;13.460;2023-02-18T09:11:46;10.77;;;1.88;;
50549;SDS011;36505;52.512;13.460;2023-02-18T09:14:12;9.88;;;1.88;;
50549;SDS011;36505;52.512;13.460;2023-02-18T09:16:38;9.43;;;2.95;;
50549;SDS011;36505;52.512;13.460;2023-02-18T09:19:04;9.70;;;2.10;;
50549;SDS011;36505;52.512;13.460;2023-02-18T09:21:30;16.10;;;2.53;;
50549;SDS011;36505;52.512;13.460;2023-02-18T09:23:56;9.98;;;2.28;;
50549;SDS011;36505;52.512;13.460;2023-02-18T09:26:22;15.07;;;4.80;;
50549;SDS011;36505;52.512;13.460;2023-02-18T09:28:49;9.95;;;3.25;;
50549;SDS011;36505;52.512;13.460;2023-02-18T09:31:16;7.28;;;2.10;;
50549;SDS011;36505;52.512;13.460;2023-02-18T09:33:45;17.90;;;3.90;;
50549;SDS011;36505;52.512;13.460;2023-02-18T09:36:13;17.88;;;3.13;;
50549;SDS011;36505;52.512;13.460;2023-02-18T09:38:39;15.57;;;2.90;;
50549;SDS011;36505;52.512;13.460;2023-02-18T09:41:07;5.45;;;2.35;;
50549;SDS011;36505;52.512;13.460;2023-02-18T09:43:40;7.93;;;2.47;;
50549;SDS011;36505;52.512;13.460;2023-02-18T09:46:31;7.13;;;2.30;;
50549;SDS011;36505;52.512;13.460;2023-02-18T09:49:00;8.18;;;2.45;;
50549;SDS011;36505;52.512;13.460;2023-02-18T09:51:27;7.30;;;2.85;;
50549;SDS011;36505;52.512;13.460;2023-02-18T09:53:53;17.88;;;4.07;;
50549;SDS011;36505;52.512;13.460;2023-02-18T09:56:25;12.60;;;3.17;;
50549;SDS011;36505;52.512;13.460;2023-02-18T09:58:53;14.90;;;5.30;;
50549;SDS011;36505;52.512;13.460;2023-02-18T10:01:24;12.40;;;3.38;;
50549;SDS011;36505;52.512;13.460;2023-02-18T10:03:51;18.48;;;7.43;;
50549;SDS011;36505;52.512;13.460;2023-02-18T10:06:19;8.85;;;3.75;;
50549;SDS011;36505;52.512;13.460;2023-02-18T10:08:50;8.30;;;2.97;;
50549;SDS011;36505;52.512;13.460;2023-02-18T10:14:08;20.88;;;5.93;;
50549;SDS011;36505;52.512;13.460;2023-02-18T10:16:36;17.45;;;3.85;;
50549;SDS011;36505;52.512;13.460;2023-02-18T10:19:11;10.93;;;3.72;;
50549;SDS011;36505;52.512;13.460;2023-02-18T10:21:39;17.50;;;4.82;;
50549;SDS011;36505;52.512;13.460;2023-02-18T10:24:13;9.00;;;4.15;;
50549;SDS011;36505;52.512;13.460;2023-02-18T10:26:49;14.43;;;4.93;;
50549;SDS011;36505;52.512;13.460;2023-02-18T10:29:16;33.58;;;17.08;;
50549;SDS011;36505;52.512;13.460;2023-02-18T10:31:44;12.52;;;5.88;;
50549;SDS011;36505;52.512;13.460;2023-02-18T10:34:34;12.02;;;4.93;;
50549;SDS011;36505;52.512;13.460;2023-02-18T10:45:25;8.38;;;2.60;;
50549;SDS011;36505;52.512;13.460;2023-02-18T10:50:46;8.05;;;3.17;;
50549;SDS011;36505;52.512;13.460;2023-02-18T10:55:59;13.43;;;3.30;;
50549;SDS011;36505;52.512;13.460;2023-02-18T11:00:59;11.55;;;2.47;;
50549;SDS011;36505;52.512;13.460;2023-02-18T11:06:14;21.70;;;8.25;;
50549;SDS011;36505;52.512;13.460;2023-02-18T11:08:44;12.00;;;4.72;;
50549;SDS011;36505;52.512;13.460;2023-02-18T11:11:20;10.45;;;3.90;;
50549;SDS011;36505;52.512;13.460;2023-02-18T11:13:53;21.20;;;9.77;;
50549;SDS011;36505;52.512;13.460;2023-02-18T11:16:22;9.30;;;3.72;;
50549;SDS011;36505;52.512;13.460;2023-02-18T11:18:48;9.73;;;3.42;;
50549;SDS011;36505;52.512;13.460;2023-02-18T11:21:23;13.50;;;3.40;;
50549;SDS011;36505;52.512;13.460;2023-02-18T11:23:55;8.07;;;2.05;;
50549;SDS011;36505;52.512;13.460;2023-02-18T11:26:29;6.60;;;2.15;;
50549;SDS011;36505;52.512;13.460;2023-02-18T11:29:00;6.80;;;2.75;;
50549;SDS011;36505;52.512;13.460;2023-02-18T11:31:37;6.47;;;2.10;;
50549;SDS011;36505;52.512;13.460;2023-02-18T11:34:05;7.68;;;2.65;;
50549;SDS011;36505;52.512;13.460;2023-02-18T11:36:34;11.20;;;3.78;;
50549;SDS011;36505;52.512;13.460;2023-02-18T11:39:01;13.90;;;6.38;;
50549;SDS011;36505;52.512;13.460;2023-02-18T11:41:41;10.52;;;4.60;;
50549;SDS011;36505;52.512;13.460;2023-02-18T11:49:22;7.03;;;3.17;;
50549;SDS011;36505;52.512;13.460;2023-02-18T11:51:49;12.30;;;6.40;;
50549;SDS011;36505;52.512;13.460;2023-02-18T11:54:28;7.60;;;3.70;;
50549;SDS011;36505;52.512;13.460;2023-02-18T11:57:20;6.28;;;2.45;;
50549;SDS011;36505;52.512;13.460;2023-02-18T11:59:50;5.85;;;2.63;;
50549;SDS011;36505;52.512;13.460;2023-02-18T12:07:42;14.23;;;6.82;;
50549;SDS011;36505;52.512;13.460;2023-02-18T12:32:49;6.68;;;3.08;;
50549;SDS011;36505;52.512;13.460;2023-02-18T12:52:32;8.35;;;3.88;;
50549;SDS011;36505;52.512;13.460;2023-02-18T12:57:53;7.53;;;3.75;;
50549;SDS011;36505;52.512;13.460;2023-02-18T13:03:06;5.90;;;4.10;;
50549;SDS011;36505;52.512;13.460;2023-02-18T13:08:50;4.00;;;2.90;;
50549;SDS011;36505;52.512;13.460;2023-02-18T13:14:26;5.03;;;3.20;;
50549;SDS011;36505;52.512;13.460;2023-02-18T13:16:56;5.03;;;2.97;;
50549;SDS011;36505;52.512;13.460;2023-02-18T13:19:25;5.97;;;3.53;;
50549;SDS011;36505;52.512;13.460;2023-02-18T13:21:53;4.38;;;2.67;;
50549;SDS011;36505;52.512;13.460;2023-02-18T13:26:55;7.03;;;3.00;;
50549;SDS011;36505;52.512;13.460;2023-02-18T13:29:31;4.75;;;2.53;;
50549;SDS011;36505;52.512;13.460;2023-02-18T13:34:45;4.45;;;2.55;;
50549;SDS011;36505;52.512;13.460;2023-02-18T13:40:20;10.77;;;4.05;;
50549;SDS011;36505;52.512;13.460;2023-02-18T13:42:52;3.85;;;2.17;;
50549;SDS011;36505;52.512;13.460;2023-02-18T13:45:26;3.97;;;2.28;;
50549;SDS011;36505;52.512;13.460;2023-02-18T13:47:56;4.55;;;2.15;;
50549;SDS011;36505;52.512;13.460;2023-02-18T13:55:40;2.03;;;1.30;;
50549;SDS011;36505;52.512;13.460;2023-02-18T13:58:22;2.50;;;1.30;;
50549;SDS011;36505;52.512;13.460;2023-02-18T14:00:59;2.60;;;1.58;;
50549;SDS011;36505;52.512;13.460;2023-02-18T14:06:16;2.13;;;1.48;;
50549;SDS011;36505;52.512;13.460;2023-02-18T14:19:38;3.00;;;1.45;;
50549;SDS011;36505;52.512;13.460;2023-02-18T14:24:53;5.57;;;3.22;;
50549;SDS011;36505;52.512;13.460;2023-02-18T14:27:24;3.63;;;1.90;;
50549;SDS011;36505;52.512;13.460;2023-02-18T14:29:50;4.18;;;2.00;;
50549;SDS011;36505;52.512;13.460;2023-02-18T14:32:16;2.22;;;1.15;;
50549;SDS011;36505;52.512;13.460;2023-02-18T14:34:51;2.88;;;1.60;;
50549;SDS011;36505;52.512;13.460;2023-02-18T14:45:48;4.65;;;2.45;;
50549;SDS011;36505;52.512;13.460;2023-02-18T14:50:46;2.42;;;1.10;;
50549;SDS011;36505;52.512;13.460;2023-02-18T14:53:14;1.85;;;1.30;;
50549;SDS011;36505;52.512;13.460;2023-02-18T14:55:45;1.40;;;1.13;;
50549;SDS011;36505;52.512;13.460;2023-02-18T14:58:30;3.03;;;1.42;;
50549;SDS011;36505;52.512;13.460;2023-02-18T15:03:45;3.45;;;1.73;;
50549;SDS011;36505;52.512;13.460;2023-02-18T15:06:29;3.53;;;1.95;;
50549;SDS011;36505;52.512;13.460;2023-02-18T15:09:00;3.78;;;1.67;;
50549;SDS011;36505;52.512;13.460;2023-02-18T15:11:31;5.68;;;2.25;;
50549;SDS011;36505;52.512;13.460;2023-02-18T15:14:03;4.88;;;2.35;;
50549;SDS011;36505;52.512;13.460;2023-02-18T15:16:34;3.30;;;1.73;;
50549;SDS011;36505;52.512;13.460;2023-02-18T15:19:06;5.18;;;3.13;;
50549;SDS011;36505;52.512;13.460;2023-02-18T15:21:39;5.22;;;1.80;;
50549;SDS011;36505;52.512;13.460;2023-02-18T15:24:07;2.60;;;1.45;;
50549;SDS011;36505;52.512;13.460;2023-02-18T15:26:43;3.28;;;1.33;;
50549;SDS011;36505;52.512;13.460;2023-02-18T15:29:21;3.17;;;1.30;;
50549;SDS011;36505;52.512;13.460;2023-02-18T15:31:52;2.67;;;1.42;;
50549;SDS011;36505;52.512;13.460;2023-02-18T15:36:57;2.75;;;0.90;;
50549;SDS011;36505;52.512;13.460;2023-02-18T15:39:24;1.65;;;1.10;;
50549;SDS011;36505;52.512;13.460;2023-02-18T15:41:52;3.22;;;1.17;;
50549;SDS011;36505;52.512;13.460;2023-02-18T15:44:20;0.98;;;0.75;;
50549;SDS011;36505;52.512;13.460;2023-02-18T15:46:48;2.20;;;1.15;;
50549;SDS011;36505;52.512;13.460;2023-02-18T15:49:15;1.65;;;0.93;;
50549;SDS011;36505;52.512;13.460;2023-02-18T15:51:45;1.50;;;0.60;;
50549;SDS011;36505;52.512;13.460;2023-02-18T15:54:12;2.95;;;1.08;;
50549;SDS011;36505;52.512;13.460;2023-02-18T15:56:42;1.77;;;1.00;;
50549;SDS011;36505;52.512;13.460;2023-02-18T15:59:15;0.90;;;0.60;;
50549;SDS011;36505;52.512;13.460;2023-02-18T16:01:53;0.88;;;0.60;;
50549;SDS011;36505;52.512;13.460;2023-02-18T16:04:20;2.83;;;1.10;;
50549;SDS011;36505;52.512;13.460;2023-02-18T16:06:51;1.85;;;0.70;;
50549;SDS011;36505;52.512;13.460;2023-02-18T16:09:20;1.92;;;0.77;;
50549;SDS011;36505;52.512;13.460;2023-02-18T16:14:43;1.15;;;0.80;;
50549;SDS011;36505;52.512;13.460;2023-02-18T16:25:06;1.20;;;0.70;;
50549;SDS011;36505;52.512;13.460;2023-02-18T16:28:12;3.03;;;1.88;;
50549;SDS011;36505;52.512;13.460;2023-02-18T16:30:45;1.02;;;0.60;;
50549;SDS011;36505;52.512;13.460;2023-02-18T16:33:11;2.90;;;1.20;;
50549;SDS011;36505;52.512;13.460;2023-02-18T16:35:36;2.85;;;0.80;;
50549;SDS011;36505;52.512;13.460;2023-02-18T16:38:02;1.55;;;0.63;;
50549;SDS011;36505;52.512;13.460;2023-02-18T16:43:12;2.33;;;1.00;;
50549;SDS011;36505;52.512;13.460;2023-02-18T16:45:41;2.50;;;0.80;;
50549;SDS011;36505;52.512;13.460;2023-02-18T16:48:22;0.95;;;0.70;;
50549;SDS011;36505;52.512;13.460;2023-02-18T16:50:48;0.63;;;0.63;;
50549;SDS011;36505;52.512;13.460;2023-02-18T16:53:15;1.35;;;1.00;;
50549;SDS011;36505;52.512;13.460;2023-02-18T16:55:41;1.92;;;1.05;;
50549;SDS011;36505;52.512;13.460;2023-02-18T16:58:07;1.15;;;0.82;;
50549;SDS011;36505;52.512;13.460;2023-02-18T17:00:32;4.20;;;1.30;;
50549;SDS011;36505;52.512;13.460;2023-02-18T17:02:58;1.70;;;1.10;;
50549;SDS011;36505;52.512;13.460;2023-02-18T17:05:28;1.77;;;1.15;;
50549;SDS011;36505;52.512;13.460;2023-02-18T17:07:58;6.47;;;1.90;;
50549;SDS011;36505;52.512;13.460;2023-02-18T17:10:38;4.85;;;2.33;;
50549;SDS011;36505;52.512;13.460;2023-02-18T17:13:03;3.80;;;1.40;;
50549;SDS011;36505;52.512;13.460;2023-02-18T17:15:30;2.88;;;1.52;;
50549;SDS011;36505;52.512;13.460;2023-02-18T17:17:58;2.67;;;1.17;;
50549;SDS011;36505;52.512;13.460;2023-02-18T17:20:27;2.85;;;1.60;;
50549;SDS011;36505;52.512;13.460;2023-02-18T17:22:56;2.47;;;2.00;;
50549;SDS011;36505;52.512;13.460;2023-02-18T17:25:33;4.75;;;2.10;;
50549;SDS011;36505;52.512;13.460;2023-02-18T17:28:00;4.47;;;2.90;;
50549;SDS011;36505;52.512;13.460;2023-02-18T17:30:26;2.28;;;1.48;;
50549;SDS011;36505;52.512;13.460;2023-02-18T17:32:52;3.50;;;1.58;;
50549;SDS011;36505;52.512;13.460;2023-02-18T17:35:18;2.40;;;1.33;;
50549;SDS011;36505;52.512;13.460;2023-02-18T17:37:47;2.00;;;1.20;;
50549;SDS011;36505;52.512;13.460;2023-02-18T17:40:17;10.40;;;5.65;;
50549;SDS011;36505;52.512;13.460;2023-02-18T17:42:44;2.58;;;1.50;;